createdAt,value
2017-11-19T00:02:20.858Z,88.90
2017-11-19T00:04:48.382Z,88.90
2017-11-19T00:07:16.703Z,88.60
2017-11-19T00:09:44.991Z,88.30
2017-11-19T00:12:12.537Z,88.30
2017-11-19T00:14:40.055Z,88.10
2017-11-19T00:17:08.346Z,88.30
2017-11-19T00:19:35.888Z,88.30
2017-11-19T00:22:03.406Z,88.00
2017-11-19T00:24:30.970Z,87.70
2017-11-19T00:26:59.253Z,87.70
2017-11-19T00:29:26.774Z,87.70
2017-11-19T00:31:54.324Z,87.70
2017-11-19T00:34:21.842Z,87.70
2017-11-19T00:36:50.149Z,87.90
2017-11-19T00:39:17.673Z,87.90
2017-11-19T00:41:45.194Z,88.00
2017-11-19T00:44:12.767Z,88.10
2017-11-19T00:46:41.048Z,88.50
2017-11-19T00:49:08.588Z,88.50
2017-11-19T00:51:36.105Z,88.80
2017-11-19T00:54:03.630Z,89.30
2017-11-19T00:56:31.935Z,89.40
2017-11-19T00:58:59.469Z,89.50
2017-11-19T01:01:27.019Z,89.40
2017-11-19T01:03:54.533Z,89.30
2017-11-19T01:06:22.845Z,88.90
2017-11-19T01:08:50.393Z,89.00
2017-11-19T01:11:17.914Z,88.60
2017-11-19T01:13:45.454Z,88.30
2017-11-19T01:16:13.766Z,87.70
2017-11-19T01:18:41.305Z,87.70
2017-11-19T01:21:08.851Z,87.80
2017-11-19T01:23:37.134Z,87.90
2017-11-19T01:26:05.446Z,88.00
2017-11-19T01:28:32.965Z,88.00
2017-11-19T01:31:00.509Z,88.10
2017-11-19T01:33:28.035Z,88.20
2017-11-19T01:35:56.347Z,88.60
2017-11-19T01:38:23.878Z,88.60
2017-11-19T01:40:51.401Z,88.70
2017-11-19T01:43:19.709Z,88.90
2017-11-19T01:45:48.002Z,89.10
2017-11-19T01:48:15.555Z,89.20
2017-11-19T01:50:43.074Z,89.20
2017-11-19T01:53:10.619Z,89.30
2017-11-19T01:55:38.918Z,89.40
2017-11-19T01:58:06.439Z,89.40
2017-11-19T02:00:34.746Z,89.40
2017-11-19T02:03:02.284Z,89.40
2017-11-19T02:05:29.839Z,89.40
2017-11-19T02:07:58.137Z,89.40
2017-11-19T02:10:25.703Z,89.30
2017-11-19T02:12:53.230Z,89.40
2017-11-19T02:15:20.747Z,89.20
2017-11-19T02:17:49.058Z,88.50
2017-11-19T02:20:16.581Z,88.50
2017-11-19T02:22:44.131Z,88.40
2017-11-19T02:25:11.660Z,88.30
2017-11-19T02:27:39.973Z,88.40
2017-11-19T02:30:07.502Z,88.30
2017-11-19T02:32:35.058Z,88.40
2017-11-19T02:35:02.586Z,88.60
2017-11-19T02:37:30.880Z,88.60
2017-11-19T02:39:58.421Z,88.60
2017-11-19T02:42:25.948Z,88.60
2017-11-19T02:44:54.272Z,88.20
2017-11-19T02:47:22.558Z,88.10
2017-11-19T02:49:50.103Z,88.10
2017-11-19T02:52:17.632Z,87.80
2017-11-19T02:54:45.949Z,87.60
2017-11-19T02:57:14.242Z,87.00
2017-11-19T02:59:41.764Z,87.00
2017-11-19T03:02:09.306Z,86.80
2017-11-19T03:04:36.832Z,84.60
2017-11-19T03:07:05.154Z,84.60
2017-11-19T03:09:32.673Z,84.60
2017-11-19T03:12:00.210Z,85.10
2017-11-19T03:14:28.492Z,85.20
2017-11-19T03:16:56.815Z,84.90
2017-11-19T03:19:24.329Z,84.90
2017-11-19T03:21:51.854Z,85.20
2017-11-19T03:24:19.397Z,85.50
2017-11-19T03:26:47.689Z,86.10
2017-11-19T03:29:15.237Z,86.10
2017-11-19T03:31:42.753Z,86.10
2017-11-19T03:34:11.097Z,86.60
2017-11-19T03:36:39.379Z,86.90
2017-11-19T03:39:06.942Z,86.90
2017-11-19T03:41:34.457Z,87.00
2017-11-19T03:44:01.986Z,87.10
2017-11-19T03:46:30.297Z,87.40
2017-11-19T03:48:57.812Z,87.40
2017-11-19T03:51:25.356Z,87.40
2017-11-19T03:53:52.873Z,87.50
2017-11-19T03:56:21.181Z,87.40
2017-11-19T03:58:48.705Z,87.30
2017-11-19T04:01:17.965Z,87.50
2017-11-19T04:03:45.482Z,87.50
2017-11-19T04:06:13.774Z,87.10
2017-11-19T04:08:41.317Z,87.20
2017-11-19T04:11:08.837Z,87.20
2017-11-19T04:13:36.389Z,87.10
2017-11-19T04:16:04.673Z,86.50
2017-11-19T04:18:32.198Z,86.50
2017-11-19T04:21:00.506Z,86.70
2017-11-19T04:23:28.031Z,86.70
2017-11-19T04:25:56.350Z,86.90
2017-11-19T04:28:23.865Z,86.90
2017-11-19T04:30:51.381Z,87.10
2017-11-19T04:33:18.917Z,87.20
2017-11-19T04:35:47.197Z,87.70
2017-11-19T04:38:14.758Z,87.70
2017-11-19T04:40:42.281Z,87.90
2017-11-19T04:43:09.805Z,88.10
2017-11-19T04:45:38.113Z,88.60
2017-11-19T04:48:05.634Z,88.60
2017-11-19T04:50:33.181Z,88.80
2017-11-19T04:53:00.708Z,89.00
2017-11-19T04:55:28.262Z,89.00
2017-11-19T04:57:56.549Z,89.50
2017-11-19T05:00:24.070Z,89.60
2017-11-19T05:02:51.614Z,89.90
2017-11-19T05:05:19.144Z,90.00
2017-11-19T05:07:47.462Z,90.00
2017-11-19T05:10:14.977Z,90.00
2017-11-19T05:12:43.311Z,90.10
2017-11-19T05:15:11.598Z,90.10
2017-11-19T05:17:39.881Z,90.00
2017-11-19T05:20:07.427Z,90.00
2017-11-19T05:22:34.954Z,89.90
2017-11-19T05:25:02.494Z,90.00
2017-11-19T05:27:30.781Z,90.20
2017-11-19T05:29:58.358Z,90.20
2017-11-19T05:32:25.877Z,90.20
2017-11-19T05:34:53.402Z,90.30
2017-11-19T05:37:21.709Z,90.30
2017-11-19T05:39:49.230Z,90.30
2017-11-19T05:42:16.793Z,90.20
2017-11-19T05:44:44.318Z,90.20
2017-11-19T05:47:12.643Z,90.10
2017-11-19T05:49:40.169Z,90.10
2017-11-19T05:52:07.681Z,90.00
2017-11-19T05:54:35.225Z,90.10
2017-11-19T05:57:03.507Z,90.10
2017-11-19T05:59:31.041Z,90.10
2017-11-19T06:01:58.600Z,90.10
2017-11-19T06:04:26.953Z,90.00
2017-11-19T06:06:55.237Z,89.90
2017-11-19T06:09:22.754Z,89.90
2017-11-19T06:11:50.288Z,89.80
2017-11-19T06:14:17.813Z,89.70
2017-11-19T06:16:46.124Z,89.30
2017-11-19T06:19:13.641Z,90.00
2017-11-19T06:21:41.205Z,89.40
2017-11-19T06:24:08.722Z,89.40
2017-11-19T06:26:37.010Z,89.40
2017-11-19T06:29:04.553Z,89.30
2017-11-19T06:31:32.069Z,89.50
2017-11-19T06:33:59.626Z,89.60
2017-11-19T06:36:27.921Z,89.80
2017-11-19T06:38:55.462Z,89.80
2017-11-19T06:41:22.985Z,89.80
2017-11-19T06:43:51.272Z,89.90
2017-11-19T06:46:19.583Z,90.00
2017-11-19T06:48:47.101Z,90.00
2017-11-19T06:51:14.665Z,90.00
2017-11-19T06:53:42.182Z,89.80
2017-11-19T06:56:10.491Z,89.30
2017-11-19T06:58:38.014Z,89.30
2017-11-19T07:01:05.563Z,89.10
2017-11-19T07:03:33.087Z,88.90
2017-11-19T07:06:01.403Z,88.50
2017-11-19T07:08:28.926Z,88.40
2017-11-19T07:10:56.470Z,88.40
2017-11-19T07:13:23.998Z,88.40
2017-11-19T07:15:52.306Z,88.70
2017-11-19T07:18:19.826Z,88.60
2017-11-19T07:20:47.370Z,88.80
2017-11-19T07:23:14.886Z,88.80
2017-11-19T07:25:43.190Z,89.00
2017-11-19T07:28:10.713Z,89.00
2017-11-19T07:30:38.256Z,88.90
2017-11-19T07:33:05.773Z,88.80
2017-11-19T07:35:34.098Z,88.80
2017-11-19T07:38:01.626Z,88.80
2017-11-19T07:40:29.165Z,88.90
2017-11-19T07:42:56.701Z,88.80
2017-11-19T07:45:24.256Z,88.80
2017-11-19T07:47:52.543Z,89.20
2017-11-19T07:50:20.853Z,89.10
2017-11-19T07:52:48.372Z,89.10
2017-11-19T07:55:15.917Z,89.00
2017-11-19T07:57:44.197Z,88.50
2017-11-19T08:00:11.741Z,88.50
2017-11-19T08:02:39.258Z,88.40
2017-11-19T08:05:06.809Z,88.40
2017-11-19T08:07:35.102Z,88.20
2017-11-19T08:10:02.629Z,88.20
2017-11-19T08:12:30.177Z,88.30
2017-11-19T08:14:57.698Z,88.00
2017-11-19T08:17:26.017Z,87.50
2017-11-19T08:19:53.533Z,87.50
2017-11-19T08:22:21.073Z,87.60
2017-11-19T08:24:48.590Z,87.20
2017-11-19T08:27:16.902Z,86.50
2017-11-19T08:29:44.421Z,86.40
2017-11-19T08:32:11.970Z,86.40
2017-11-19T08:34:39.499Z,86.30
2017-11-19T08:37:07.818Z,86.10
2017-11-19T08:39:35.336Z,86.10
2017-11-19T08:42:02.882Z,85.90
2017-11-19T08:44:30.408Z,85.80
2017-11-19T08:46:58.717Z,85.00
2017-11-19T08:49:26.234Z,85.00
2017-11-19T08:51:54.544Z,83.90
2017-11-19T08:54:22.066Z,83.90
2017-11-19T08:56:50.374Z,83.80
2017-11-19T08:59:17.889Z,83.80
2017-11-19T09:01:45.426Z,84.10
2017-11-19T09:04:12.951Z,84.50
2017-11-19T09:06:41.286Z,84.90
2017-11-19T09:09:08.813Z,85.00
2017-11-19T09:11:36.367Z,85.00
2017-11-19T09:14:03.901Z,84.80
2017-11-19T09:16:32.212Z,83.80
2017-11-19T09:18:59.739Z,83.80
2017-11-19T09:21:27.277Z,83.40
2017-11-19T09:23:54.794Z,83.20
2017-11-19T09:26:23.106Z,83.50
2017-11-19T09:28:50.625Z,83.50
2017-11-19T09:31:18.181Z,83.30
2017-11-19T09:33:45.714Z,83.10
2017-11-19T09:36:14.055Z,82.30
2017-11-19T09:38:41.574Z,82.30
2017-11-19T09:41:09.098Z,81.60
2017-11-19T09:43:36.653Z,80.80
2017-11-19T09:46:04.970Z,81.60
2017-11-19T09:48:32.650Z,81.60
2017-11-19T09:51:00.361Z,82.20
2017-11-19T09:53:27.906Z,81.70
2017-11-19T09:55:56.214Z,80.70
2017-11-19T09:58:23.764Z,80.70
2017-11-19T10:00:51.293Z,80.40
2017-11-19T10:03:18.837Z,80.60
2017-11-19T10:05:47.127Z,80.50
2017-11-19T10:08:14.666Z,80.50
2017-11-19T10:10:42.181Z,80.70
2017-11-19T10:13:09.722Z,80.80
2017-11-19T10:15:38.005Z,80.90
2017-11-19T10:18:05.550Z,80.80
2017-11-19T10:20:33.069Z,80.90
2017-11-19T10:23:01.469Z,79.90
2017-11-19T10:25:28.990Z,79.70
2017-11-19T10:27:57.295Z,79.00
2017-11-19T10:30:24.817Z,79.00
2017-11-19T10:32:52.365Z,79.00
2017-11-19T10:35:19.889Z,79.20
2017-11-19T10:37:48.211Z,79.10
2017-11-19T10:40:15.742Z,79.20
2017-11-19T10:42:43.285Z,79.00
2017-11-19T10:45:10.813Z,78.60
2017-11-19T10:47:39.127Z,79.00
2017-11-19T10:50:06.654Z,79.00
2017-11-19T10:52:34.206Z,78.90
2017-11-19T10:55:02.502Z,79.70
2017-11-19T10:57:30.818Z,79.70
2017-11-19T10:59:58.338Z,79.70
2017-11-19T11:02:25.900Z,79.50
2017-11-19T11:04:53.434Z,79.10
2017-11-19T11:07:21.734Z,79.10
2017-11-19T11:09:49.294Z,80.00
2017-11-19T11:12:17.586Z,76.90
2017-11-19T11:14:45.137Z,76.90
2017-11-19T11:17:13.420Z,76.10
2017-11-19T11:19:40.962Z,76.10
2017-11-19T11:22:08.495Z,75.60
2017-11-19T11:24:36.046Z,75.50
2017-11-19T11:27:04.339Z,75.90
2017-11-19T11:29:31.890Z,75.90
2017-11-19T11:31:59.434Z,75.10
2017-11-19T11:34:26.986Z,74.70
2017-11-19T11:36:55.299Z,74.30
2017-11-19T11:39:22.845Z,74.40
2017-11-19T11:41:51.137Z,74.30
2017-11-19T11:44:19.454Z,74.30
2017-11-19T11:46:47.754Z,74.40
2017-11-19T11:49:15.309Z,74.40
2017-11-19T11:51:42.829Z,74.30
2017-11-19T11:54:10.382Z,73.80
2017-11-19T11:56:38.673Z,74.00
2017-11-19T11:59:06.214Z,74.00
2017-11-19T12:01:33.733Z,73.80
2017-11-19T12:04:01.289Z,73.90
2017-11-19T12:06:29.602Z,74.00
2017-11-19T12:08:57.934Z,74.10
2017-11-19T12:11:26.243Z,73.80
2017-11-19T12:13:53.786Z,73.80
2017-11-19T12:16:22.080Z,74.30
2017-11-19T12:18:49.626Z,74.20
2017-11-19T12:21:17.152Z,73.30
2017-11-19T12:23:44.701Z,73.50
2017-11-19T12:26:12.990Z,73.40
2017-11-19T12:28:40.557Z,73.40
2017-11-19T12:31:08.097Z,73.10
2017-11-19T12:33:35.628Z,73.10
2017-11-19T12:36:03.942Z,73.80
2017-11-19T12:38:31.474Z,73.90
2017-11-19T12:40:59.031Z,73.60
2017-11-19T12:43:26.559Z,72.30
2017-11-19T12:45:54.884Z,69.70
2017-11-19T12:48:22.422Z,69.70
2017-11-19T12:50:49.982Z,69.30
2017-11-19T12:53:17.507Z,68.60
2017-11-19T12:55:45.821Z,69.10
2017-11-19T12:58:13.358Z,69.00
2017-11-19T13:00:40.924Z,69.40
2017-11-19T13:03:08.462Z,70.50
2017-11-19T13:05:36.785Z,71.10
2017-11-19T13:08:04.318Z,71.10
2017-11-19T13:10:32.643Z,71.40
2017-11-19T13:13:00.196Z,70.50
2017-11-19T13:15:27.779Z,71.00
2017-11-19T13:17:56.066Z,71.90
2017-11-19T13:20:23.640Z,72.00
2017-11-19T13:22:51.176Z,72.60
2017-11-19T13:25:18.727Z,72.90
2017-11-19T13:27:47.027Z,72.20
2017-11-19T13:30:15.345Z,72.00
2017-11-19T13:32:42.874Z,72.00
2017-11-19T13:35:10.428Z,71.60
2017-11-19T13:37:38.722Z,71.30
2017-11-19T13:40:06.286Z,71.30
2017-11-19T13:42:34.582Z,70.40
2017-11-19T13:45:02.134Z,70.40
2017-11-19T13:47:30.426Z,69.00
2017-11-19T13:49:57.986Z,68.90
2017-11-19T13:52:25.517Z,68.70
2017-11-19T13:54:53.090Z,68.30
2017-11-19T13:57:21.391Z,68.30
2017-11-19T13:59:48.922Z,68.20
2017-11-19T14:02:16.473Z,68.80
2017-11-19T14:04:44.322Z,69.40
2017-11-19T14:07:12.637Z,70.90
2017-11-19T14:09:40.165Z,70.90
2017-11-19T14:12:08.496Z,71.90
2017-11-19T14:14:36.031Z,71.90
2017-11-19T14:17:04.343Z,73.70
2017-11-19T14:19:31.866Z,73.50
2017-11-19T14:21:59.415Z,73.80
2017-11-19T14:24:26.945Z,74.40
2017-11-19T14:26:55.271Z,74.90
2017-11-19T14:29:22.793Z,74.90
2017-11-19T14:31:50.338Z,75.20
2017-11-19T14:34:17.862Z,76.10
2017-11-19T14:36:46.181Z,76.10
2017-11-19T14:39:13.701Z,76.10
2017-11-19T14:41:41.271Z,76.00
2017-11-19T14:44:08.818Z,76.00
2017-11-19T14:46:37.125Z,76.50
2017-11-19T14:49:04.666Z,76.60
2017-11-19T14:51:32.218Z,76.70
2017-11-19T14:54:00.526Z,77.00
2017-11-19T14:56:28.854Z,76.90
2017-11-19T14:58:56.382Z,76.80
2017-11-19T15:01:23.921Z,76.60
2017-11-19T15:03:51.454Z,76.20
2017-11-19T15:06:19.771Z,76.70
2017-11-19T15:08:47.302Z,76.60
2017-11-19T15:11:15.618Z,76.90
2017-11-19T15:13:43.149Z,76.90
2017-11-19T15:16:11.465Z,76.80
2017-11-19T15:18:39.002Z,76.80
2017-11-19T15:21:06.586Z,76.00
2017-11-19T15:23:34.887Z,76.10
2017-11-19T15:26:03.186Z,76.40
2017-11-19T15:28:30.734Z,76.40
2017-11-19T15:30:58.267Z,76.80
2017-11-19T15:33:26.585Z,77.40
2017-11-19T15:35:54.882Z,77.80
2017-11-19T15:38:22.440Z,77.80
2017-11-19T15:40:49.966Z,78.20
2017-11-19T15:43:17.513Z,78.30
2017-11-19T15:45:45.806Z,78.50
2017-11-19T15:48:13.369Z,78.50
2017-11-19T15:50:40.910Z,78.70
2017-11-19T15:53:09.213Z,79.30
2017-11-19T15:55:37.515Z,78.90
2017-11-19T15:58:05.075Z,78.90
2017-11-19T16:00:32.609Z,78.90
2017-11-19T16:03:00.159Z,79.00
2017-11-19T16:05:28.458Z,79.40
2017-11-19T16:07:56.773Z,79.90
2017-11-19T16:10:24.735Z,79.80
2017-11-19T16:12:52.276Z,80.10
2017-11-19T16:15:19.789Z,80.30
2017-11-19T16:17:48.106Z,81.00
2017-11-19T16:20:15.639Z,81.00
2017-11-19T16:22:43.198Z,81.30
2017-11-19T16:25:10.730Z,81.50
2017-11-19T16:27:39.057Z,82.20
2017-11-19T16:30:06.573Z,82.10
2017-11-19T16:32:34.119Z,82.10
2017-11-19T16:35:01.648Z,82.10
2017-11-19T16:37:29.954Z,81.70
2017-11-19T16:39:58.242Z,81.60
2017-11-19T16:42:25.798Z,81.60
2017-11-19T16:44:53.326Z,81.50
2017-11-19T16:47:21.725Z,81.10
2017-11-19T16:49:49.249Z,81.10
2017-11-19T16:52:16.775Z,80.60
2017-11-19T16:54:44.335Z,80.30
2017-11-19T16:57:12.628Z,79.90
2017-11-19T16:59:40.174Z,79.90
2017-11-19T17:02:07.693Z,79.80
2017-11-19T17:04:35.238Z,79.90
2017-11-19T17:07:03.534Z,79.90
2017-11-19T17:09:31.087Z,80.00
2017-11-19T17:11:58.632Z,79.90
2017-11-19T17:14:26.195Z,79.90
2017-11-19T17:16:54.490Z,80.00
2017-11-19T17:19:22.025Z,80.00
2017-11-19T17:21:49.551Z,80.00
2017-11-19T17:24:17.106Z,80.00
2017-11-19T17:26:45.426Z,80.30
2017-11-19T17:29:12.984Z,80.20
2017-11-19T17:31:40.516Z,80.40
2017-11-19T17:34:08.065Z,80.30
2017-11-19T17:36:36.353Z,80.50
2017-11-19T17:39:03.898Z,80.40
2017-11-19T17:41:31.430Z,80.70
2017-11-19T17:43:58.986Z,80.70
2017-11-19T17:46:27.277Z,81.20
2017-11-19T17:48:54.826Z,81.20
2017-11-19T17:51:22.366Z,81.50
2017-11-19T17:53:49.930Z,81.90
2017-11-19T17:56:18.230Z,82.90
2017-11-19T17:58:45.774Z,82.80
2017-11-19T18:01:14.072Z,83.40
2017-11-19T18:03:41.635Z,83.30
2017-11-19T18:06:09.937Z,83.90
2017-11-19T18:08:38.254Z,84.20
2017-11-19T18:11:05.794Z,84.20
2017-11-19T18:13:33.342Z,84.30
2017-11-19T18:16:01.652Z,84.10
2017-11-19T18:18:29.183Z,84.10
2017-11-19T18:20:56.737Z,84.20
2017-11-19T18:23:25.072Z,84.40
2017-11-19T18:25:53.385Z,84.40
2017-11-19T18:28:20.918Z,84.40
2017-11-19T18:30:48.477Z,84.30
2017-11-19T18:33:16.036Z,84.50
2017-11-19T18:35:44.345Z,84.70
2017-11-19T18:38:11.870Z,84.70
2017-11-19T18:40:39.422Z,85.00
2017-11-19T18:43:06.946Z,85.30
2017-11-19T18:45:35.261Z,85.40
2017-11-19T18:48:03.566Z,85.70
2017-11-19T18:50:31.137Z,85.70
2017-11-19T18:52:58.678Z,85.90
2017-11-19T18:55:26.345Z,86.00
2017-11-19T18:57:54.632Z,86.00
2017-11-19T19:00:22.181Z,86.10
2017-11-19T19:02:49.712Z,85.90
2017-11-19T19:05:17.269Z,85.70
2017-11-19T19:07:45.562Z,86.20
2017-11-19T19:10:13.109Z,86.10
2017-11-19T19:12:40.634Z,86.40
2017-11-19T19:15:08.187Z,86.60
2017-11-19T19:17:36.481Z,86.40
2017-11-19T19:20:04.037Z,86.50
2017-11-19T19:22:31.574Z,86.40
2017-11-19T19:24:59.122Z,86.30
2017-11-19T19:27:27.410Z,86.10
2017-11-19T19:29:54.973Z,86.10
2017-11-19T19:32:22.523Z,86.10
2017-11-19T19:34:50.069Z,86.20
2017-11-19T19:37:18.387Z,85.70
2017-11-19T19:39:45.994Z,85.70
2017-11-19T19:42:13.521Z,85.70
2017-11-19T19:44:41.093Z,85.40
2017-11-19T19:47:09.418Z,85.20
2017-11-19T19:49:36.949Z,85.20
2017-11-19T19:52:04.535Z,85.20
2017-11-19T19:54:32.066Z,85.30
2017-11-19T19:57:00.393Z,85.50
2017-11-19T19:59:27.918Z,85.50
2017-11-19T20:01:55.462Z,85.30
2017-11-19T20:04:23.045Z,85.30
2017-11-19T20:06:51.382Z,85.20
2017-11-19T20:09:19.717Z,85.30
2017-11-19T20:11:47.261Z,85.10
2017-11-19T20:14:15.556Z,85.10
2017-11-19T20:16:43.861Z,84.90
2017-11-19T20:19:11.416Z,84.90
2017-11-19T20:21:39.775Z,84.80
2017-11-19T20:24:07.305Z,84.80
2017-11-19T20:26:35.642Z,84.80
2017-11-19T20:29:03.198Z,84.70
2017-11-19T20:31:30.726Z,84.50
2017-11-19T20:33:58.277Z,84.30
2017-11-19T20:36:26.586Z,84.70
2017-11-19T20:38:54.141Z,84.50
2017-11-19T20:41:21.677Z,84.80
2017-11-19T20:43:50.014Z,84.90
2017-11-19T20:46:18.312Z,84.90
2017-11-19T20:48:46.609Z,84.70
2017-11-19T20:51:14.153Z,84.70
2017-11-19T20:53:41.682Z,84.60
2017-11-19T20:56:10.005Z,84.80
2017-11-19T20:58:37.554Z,84.80
2017-11-19T21:01:05.157Z,85.00
2017-11-19T21:03:32.672Z,85.00
2017-11-19T21:06:00.985Z,85.30
2017-11-19T21:08:28.551Z,85.10
2017-11-19T21:10:56.930Z,85.30
2017-11-19T21:13:24.481Z,85.30
2017-11-19T21:15:52.777Z,85.30
2017-11-19T21:18:20.389Z,85.20
2017-11-19T21:20:47.946Z,85.30
2017-11-19T21:23:15.473Z,85.20
2017-11-19T21:25:43.777Z,86.00
2017-11-19T21:28:11.320Z,85.20
2017-11-19T21:30:39.666Z,85.00
2017-11-19T21:33:07.271Z,85.00
2017-11-19T21:35:35.590Z,84.50
2017-11-19T21:38:03.121Z,84.50
2017-11-19T21:40:30.682Z,84.60
2017-11-19T21:42:58.225Z,84.60
2017-11-19T21:45:25.751Z,84.40
2017-11-19T21:47:54.057Z,84.20
2017-11-19T21:50:22.349Z,84.00
2017-11-19T21:52:49.895Z,84.00
2017-11-19T21:55:17.417Z,84.20
2017-11-19T21:57:45.748Z,84.40
2017-11-19T22:00:13.283Z,84.30
2017-11-19T22:02:40.826Z,84.60
2017-11-19T22:05:08.385Z,84.80
2017-11-19T22:07:36.674Z,84.80
2017-11-19T22:10:04.220Z,84.70
2017-11-19T22:12:31.768Z,84.60
2017-11-19T22:14:59.342Z,84.60
2017-11-19T22:17:27.673Z,83.90
2017-11-19T22:19:55.201Z,83.90
2017-11-19T22:22:22.814Z,84.00
2017-11-19T22:24:50.350Z,83.90
2017-11-19T22:27:18.661Z,83.50
2017-11-19T22:29:46.181Z,83.60
2017-11-19T22:32:13.760Z,83.50
2017-11-19T22:34:41.285Z,83.60
2017-11-19T22:37:09.574Z,83.80
2017-11-19T22:39:37.121Z,83.70
2017-11-19T22:42:04.643Z,83.80
2017-11-19T22:44:32.189Z,83.80
2017-11-19T22:47:00.483Z,83.70
2017-11-19T22:49:28.950Z,83.70
2017-11-19T22:51:56.474Z,83.60
2017-11-19T22:54:24.027Z,83.60
2017-11-19T22:56:52.458Z,83.60
2017-11-19T22:59:19.999Z,83.60
2017-11-19T23:01:47.541Z,83.70
2017-11-19T23:04:15.061Z,83.80
2017-11-19T23:06:43.403Z,84.10
2017-11-19T23:09:10.934Z,84.00
2017-11-19T23:11:38.457Z,84.20
2017-11-19T23:14:06.781Z,84.20
2017-11-19T23:16:35.070Z,84.00
2017-11-19T23:19:02.613Z,84.00
2017-11-19T23:21:30.898Z,83.90
2017-11-19T23:23:58.438Z,84.80
2017-11-19T23:26:26.724Z,83.80
2017-11-19T23:28:55.042Z,83.70
2017-11-19T23:31:23.337Z,83.50
2017-11-19T23:33:50.873Z,83.40
2017-11-19T23:36:19.181Z,83.30
2017-11-19T23:38:47.519Z,83.50
2017-11-19T23:41:15.042Z,83.50
2017-11-19T23:43:42.590Z,83.50
2017-11-19T23:46:10.902Z,83.60
2017-11-19T23:48:38.426Z,83.60
2017-11-19T23:51:05.985Z,83.40
2017-11-19T23:53:33.509Z,83.40
2017-11-19T23:56:01.794Z,83.30
2017-11-19T23:58:29.350Z,83.30
